sensor_id;sensor_type;location;lat;lon;timestamp;temperature;humidity
10233;DHT22;5161;48.174;11.756;2024-01-10T00:01:17;-3.50;49.60
10233;DHT22;5161;48.174;11.756;2024-01-10T00:03:43;-3.50;49.90
10233;DHT22;5161;48.174;11.756;2024-01-10T00:06:09;-3.50;49.90
10233;DHT22;5161;48.174;11.756;2024-01-10T00:08:35;-3.50;50.00
10233;DHT22;5161;48.174;11.756;2024-01-10T00:11:01;-3.50;50.20
10233;DHT22;5161;48.174;11.756;2024-01-10T00:13:26;-3.50;50.30
10233;DHT22;5161;48.174;11.756;2024-01-10T00:15:53;-3.40;50.60
10233;DHT22;5161;48.174;11.756;2024-01-10T00:18:19;-3.40;50.60
10233;DHT22;5161;48.174;11.756;2024-01-10T00:20:44;-3.30;50.70
10233;DHT22;5161;48.174;11.756;2024-01-10T00:23:10;-3.30;50.60
10233;DHT22;5161;48.174;11.756;2024-01-10T00:25:35;-3.30;50.60
10233;DHT22;5161;48.174;11.756;2024-01-10T00:28:01;-3.30;50.70
10233;DHT22;5161;48.174;11.756;2024-01-10T00:30:27;-3.30;50.80
10233;DHT22;5161;48.174;11.756;2024-01-10T00:32:52;-3.20;51.10
10233;DHT22;5161;48.174;11.756;2024-01-10T00:35:18;-3.20;51.20
10233;DHT22;5161;48.174;11.756;2024-01-10T00:37:43;-3.20;51.30
10233;DHT22;5161;48.174;11.756;2024-01-10T00:40:09;-3.20;51.50
10233;DHT22;5161;48.174;11.756;2024-01-10T00:42:35;-3.10;51.80
10233;DHT22;5161;48.174;11.756;2024-01-10T00:45:01;-3.00;52.00
10233;DHT22;5161;48.174;11.756;2024-01-10T00:47:26;-3.00;51.90
10233;DHT22;5161;48.174;11.756;2024-01-10T00:49:52;-3.00;51.90
10233;DHT22;5161;48.174;11.756;2024-01-10T00:52:17;-3.00;51.80
10233;DHT22;5161;48.174;11.756;2024-01-10T00:54:43;-2.90;52.10
10233;DHT22;5161;48.174;11.756;2024-01-10T00:57:09;-2.90;52.20
10233;DHT22;5161;48.174;11.756;2024-01-10T00:59:35;-2.90;52.30
10233;DHT22;5161;48.174;11.756;2024-01-10T01:02:00;-2.80;52.40
10233;DHT22;5161;48.174;11.756;2024-01-10T01:04:26;-2.80;52.40
10233;DHT22;5161;48.174;11.756;2024-01-10T01:06:52;-2.70;52.50
10233;DHT22;5161;48.174;11.756;2024-01-10T01:09:18;-2.70;52.50
10233;DHT22;5161;48.174;11.756;2024-01-10T01:11:44;-2.70;52.60
10233;DHT22;5161;48.174;11.756;2024-01-10T01:14:10;-2.70;52.60
10233;DHT22;5161;48.174;11.756;2024-01-10T01:16:35;-2.70;52.70
10233;DHT22;5161;48.174;11.756;2024-01-10T01:19:01;-2.70;52.90
10233;DHT22;5161;48.174;11.756;2024-01-10T01:21:26;-2.70;52.90
10233;DHT22;5161;48.174;11.756;2024-01-10T01:23:52;-2.70;53.10
10233;DHT22;5161;48.174;11.756;2024-01-10T01:26:18;-2.70;53.20
10233;DHT22;5161;48.174;11.756;2024-01-10T01:28:43;-2.60;53.40
10233;DHT22;5161;48.174;11.756;2024-01-10T01:31:09;-2.60;53.60
10233;DHT22;5161;48.174;11.756;2024-01-10T01:33:34;-2.50;53.70
10233;DHT22;5161;48.174;11.756;2024-01-10T01:36:00;-2.50;53.80
10233;DHT22;5161;48.174;11.756;2024-01-10T01:38:26;-2.50;54.00
10233;DHT22;5161;48.174;11.756;2024-01-10T01:40:52;-2.40;54.10
10233;DHT22;5161;48.174;11.756;2024-01-10T01:43:23;-2.40;54.20
10233;DHT22;5161;48.174;11.756;2024-01-10T01:45:53;-2.40;54.20
10233;DHT22;5161;48.174;11.756;2024-01-10T01:48:23;-2.40;54.40
10233;DHT22;5161;48.174;11.756;2024-01-10T01:51:16;-2.30;54.60
10233;DHT22;5161;48.174;11.756;2024-01-10T01:53:44;-2.30;55.50
10233;DHT22;5161;48.174;11.756;2024-01-10T01:56:10;-2.30;54.80
10233;DHT22;5161;48.174;11.756;2024-01-10T01:58:37;-2.20;54.90
10233;DHT22;5161;48.174;11.756;2024-01-10T02:01:04;-2.20;55.10
10233;DHT22;5161;48.174;11.756;2024-01-10T02:03:34;-2.20;55.30
10233;DHT22;5161;48.174;11.756;2024-01-10T02:06:00;-2.20;55.90
10233;DHT22;5161;48.174;11.756;2024-01-10T02:08:29;-2.10;55.50
10233;DHT22;5161;48.174;11.756;2024-01-10T02:10:56;-2.10;55.60
10233;DHT22;5161;48.174;11.756;2024-01-10T02:13:22;-2.10;55.70
10233;DHT22;5161;48.174;11.756;2024-01-10T02:15:47;-2.10;55.90
10233;DHT22;5161;48.174;11.756;2024-01-10T02:18:13;-2.10;56.20
10233;DHT22;5161;48.174;11.756;2024-01-10T02:20:42;-2.10;56.30
10233;DHT22;5161;48.174;11.756;2024-01-10T02:23:08;-2.10;56.70
10233;DHT22;5161;48.174;11.756;2024-01-10T02:25:34;-2.10;56.80
10233;DHT22;5161;48.174;11.756;2024-01-10T02:28:00;-2.10;57.00
10233;DHT22;5161;48.174;11.756;2024-01-10T02:30:25;-2.00;56.60
10233;DHT22;5161;48.174;11.756;2024-01-10T02:32:51;-2.00;56.90
10233;DHT22;5161;48.174;11.756;2024-01-10T02:35:16;-2.00;56.90
10233;DHT22;5161;48.174;11.756;2024-01-10T02:37:42;-2.00;57.00
10233;DHT22;5161;48.174;11.756;2024-01-10T02:40:08;-2.00;57.20
10233;DHT22;5161;48.174;11.756;2024-01-10T02:42:35;-2.00;57.20
10233;DHT22;5161;48.174;11.756;2024-01-10T02:45:01;-2.00;57.10
10233;DHT22;5161;48.174;11.756;2024-01-10T02:47:26;-2.00;56.90
10233;DHT22;5161;48.174;11.756;2024-01-10T02:49:52;-1.90;56.80
10233;DHT22;5161;48.174;11.756;2024-01-10T02:52:17;-1.90;56.70
10233;DHT22;5161;48.174;11.756;2024-01-10T02:54:45;-1.90;57.30
10233;DHT22;5161;48.174;11.756;2024-01-10T02:57:10;-1.90;57.30
10233;DHT22;5161;48.174;11.756;2024-01-10T02:59:36;-1.90;56.90
10233;DHT22;5161;48.174;11.756;2024-01-10T03:02:02;-1.90;57.00
10233;DHT22;5161;48.174;11.756;2024-01-10T03:04:27;-1.90;57.50
10233;DHT22;5161;48.174;11.756;2024-01-10T03:06:53;-1.90;57.20
10233;DHT22;5161;48.174;11.756;2024-01-10T03:09:18;-1.90;56.90
10233;DHT22;5161;48.174;11.756;2024-01-10T03:11:44;-1.90;57.10
10233;DHT22;5161;48.174;11.756;2024-01-10T03:14:10;-1.90;57.40
10233;DHT22;5161;48.174;11.756;2024-01-10T03:16:37;-1.90;57.50
10233;DHT22;5161;48.174;11.756;2024-01-10T03:19:03;-1.80;57.00
10233;DHT22;5161;48.174;11.756;2024-01-10T03:21:29;-1.80;57.50
10233;DHT22;5161;48.174;11.756;2024-01-10T03:23:59;-1.90;57.50
10233;DHT22;5161;48.174;11.756;2024-01-10T03:26:26;-1.90;57.90
10233;DHT22;5161;48.174;11.756;2024-01-10T03:28:52;-1.90;57.60
10233;DHT22;5161;48.174;11.756;2024-01-10T03:31:18;-1.90;57.60
10233;DHT22;5161;48.174;11.756;2024-01-10T03:33:44;-1.80;57.90
10233;DHT22;5161;48.174;11.756;2024-01-10T03:36:12;-1.90;57.80
10233;DHT22;5161;48.174;11.756;2024-01-10T03:38:38;-2.00;58.00
10233;DHT22;5161;48.174;11.756;2024-01-10T03:41:03;-2.00;58.10
10233;DHT22;5161;48.174;11.756;2024-01-10T03:43:29;-1.90;58.20
10233;DHT22;5161;48.174;11.756;2024-01-10T03:45:54;-1.90;58.20
10233;DHT22;5161;48.174;11.756;2024-01-10T03:48:20;-1.90;58.20
10233;DHT22;5161;48.174;11.756;2024-01-10T03:50:46;-2.00;58.10
10233;DHT22;5161;48.174;11.756;2024-01-10T03:53:11;-2.10;58.50
10233;DHT22;5161;48.174;11.756;2024-01-10T03:55:37;-2.10;58.30
10233;DHT22;5161;48.174;11.756;2024-01-10T03:58:04;-2.10;58.40
10233;DHT22;5161;48.174;11.756;2024-01-10T04:00:30;-2.10;58.60
10233;DHT22;5161;48.174;11.756;2024-01-10T04:02:56;-2.10;58.60
10233;DHT22;5161;48.174;11.756;2024-01-10T04:05:21;-2.00;58.60
10233;DHT22;5161;48.174;11.756;2024-01-10T04:07:47;-2.00;58.40
10233;DHT22;5161;48.174;11.756;2024-01-10T04:10:13;-2.00;58.20
10233;DHT22;5161;48.174;11.756;2024-01-10T04:12:42;-2.00;58.60
10233;DHT22;5161;48.174;11.756;2024-01-10T04:15:08;-2.00;58.40
10233;DHT22;5161;48.174;11.756;2024-01-10T04:17:34;-2.00;58.40
10233;DHT22;5161;48.174;11.756;2024-01-10T04:19:59;-2.00;58.50
10233;DHT22;5161;48.174;11.756;2024-01-10T04:22:25;-2.00;58.50
10233;DHT22;5161;48.174;11.756;2024-01-10T04:24:51;-2.10;58.40
10233;DHT22;5161;48.174;11.756;2024-01-10T04:27:17;-2.20;58.80
10233;DHT22;5161;48.174;11.756;2024-01-10T04:29:46;-2.10;58.70
10233;DHT22;5161;48.174;11.756;2024-01-10T04:32:12;-2.10;58.90
10233;DHT22;5161;48.174;11.756;2024-01-10T04:34:37;-2.10;58.80
10233;DHT22;5161;48.174;11.756;2024-01-10T04:37:03;-2.10;58.90
10233;DHT22;5161;48.174;11.756;2024-01-10T04:39:28;-2.10;58.90
10233;DHT22;5161;48.174;11.756;2024-01-10T04:41:55;-2.00;58.80
10233;DHT22;5161;48.174;11.756;2024-01-10T04:44:20;-2.00;58.60
10233;DHT22;5161;48.174;11.756;2024-01-10T04:46:46;-2.00;58.60
10233;DHT22;5161;48.174;11.756;2024-01-10T04:49:11;-2.00;58.70
10233;DHT22;5161;48.174;11.756;2024-01-10T04:51:37;-2.00;58.70
10233;DHT22;5161;48.174;11.756;2024-01-10T04:54:03;-2.00;58.70
10233;DHT22;5161;48.174;11.756;2024-01-10T04:56:29;-1.90;58.70
10233;DHT22;5161;48.174;11.756;2024-01-10T04:58:54;-1.90;58.70
10233;DHT22;5161;48.174;11.756;2024-01-10T05:01:20;-2.00;58.60
10233;DHT22;5161;48.174;11.756;2024-01-10T05:03:45;-2.00;58.60
10233;DHT22;5161;48.174;11.756;2024-01-10T05:06:11;-2.00;58.40
10233;DHT22;5161;48.174;11.756;2024-01-10T05:08:36;-2.00;58.70
10233;DHT22;5161;48.174;11.756;2024-01-10T05:11:02;-1.90;58.70
10233;DHT22;5161;48.174;11.756;2024-01-10T05:13:28;-1.90;58.80
10233;DHT22;5161;48.174;11.756;2024-01-10T05:15:54;-2.00;58.70
10233;DHT22;5161;48.174;11.756;2024-01-10T05:18:20;-2.00;58.70
10233;DHT22;5161;48.174;11.756;2024-01-10T05:20:46;-1.90;58.90
10233;DHT22;5161;48.174;11.756;2024-01-10T05:23:12;-1.90;58.70
10233;DHT22;5161;48.174;11.756;2024-01-10T05:25:38;-1.90;58.70
10233;DHT22;5161;48.174;11.756;2024-01-10T05:28:04;-1.90;58.80
10233;DHT22;5161;48.174;11.756;2024-01-10T05:30:30;-2.00;58.70
10233;DHT22;5161;48.174;11.756;2024-01-10T05:32:55;-2.00;58.60
10233;DHT22;5161;48.174;11.756;2024-01-10T05:35:21;-2.10;58.80
10233;DHT22;5161;48.174;11.756;2024-01-10T05:37:47;-2.00;58.80
10233;DHT22;5161;48.174;11.756;2024-01-10T05:40:12;-2.00;58.80
10233;DHT22;5161;48.174;11.756;2024-01-10T05:42:38;-2.00;58.80
10233;DHT22;5161;48.174;11.756;2024-01-10T05:45:04;-2.00;58.90
10233;DHT22;5161;48.174;11.756;2024-01-10T05:47:31;-2.00;58.90
10233;DHT22;5161;48.174;11.756;2024-01-10T05:49:56;-2.00;58.70
10233;DHT22;5161;48.174;11.756;2024-01-10T05:52:22;-2.00;58.90
10233;DHT22;5161;48.174;11.756;2024-01-10T05:54:48;-2.10;58.70
10233;DHT22;5161;48.174;11.756;2024-01-10T05:57:14;-2.10;58.70
10233;DHT22;5161;48.174;11.756;2024-01-10T05:59:40;-2.10;58.80
10233;DHT22;5161;48.174;11.756;2024-01-10T06:02:06;-2.10;58.90
10233;DHT22;5161;48.174;11.756;2024-01-10T06:04:31;-2.00;58.90
10233;DHT22;5161;48.174;11.756;2024-01-10T06:06:58;-2.00;58.90
10233;DHT22;5161;48.174;11.756;2024-01-10T06:09:24;-2.00;59.00
10233;DHT22;5161;48.174;11.756;2024-01-10T06:11:50;-2.00;58.80
10233;DHT22;5161;48.174;11.756;2024-01-10T06:14:15;-2.00;59.00
10233;DHT22;5161;48.174;11.756;2024-01-10T06:16:41;-2.10;58.80
10233;DHT22;5161;48.174;11.756;2024-01-10T06:19:07;-2.00;58.90
10233;DHT22;5161;48.174;11.756;2024-01-10T06:21:32;-2.10;58.80
10233;DHT22;5161;48.174;11.756;2024-01-10T06:23:58;-2.10;59.00
10233;DHT22;5161;48.174;11.756;2024-01-10T06:26:23;-2.00;58.80
10233;DHT22;5161;48.174;11.756;2024-01-10T06:28:49;-2.10;59.00
10233;DHT22;5161;48.174;11.756;2024-01-10T06:31:14;-2.00;58.90
10233;DHT22;5161;48.174;11.756;2024-01-10T06:33:40;-2.00;58.80
10233;DHT22;5161;48.174;11.756;2024-01-10T06:36:06;-2.00;58.80
10233;DHT22;5161;48.174;11.756;2024-01-10T06:38:31;-2.00;58.70
10233;DHT22;5161;48.174;11.756;2024-01-10T06:40:57;-2.00;58.70
10233;DHT22;5161;48.174;11.756;2024-01-10T06:43:22;-2.00;58.70
10233;DHT22;5161;48.174;11.756;2024-01-10T06:45:49;-2.00;58.70
10233;DHT22;5161;48.174;11.756;2024-01-10T06:48:14;-2.10;58.70
10233;DHT22;5161;48.174;11.756;2024-01-10T06:50:40;-2.10;58.60
10233;DHT22;5161;48.174;11.756;2024-01-10T06:53:06;-2.10;58.60
10233;DHT22;5161;48.174;11.756;2024-01-10T06:55:33;-2.10;58.60
10233;DHT22;5161;48.174;11.756;2024-01-10T06:57:58;-2.10;58.70
10233;DHT22;5161;48.174;11.756;2024-01-10T07:00:24;-2.00;58.60
10233;DHT22;5161;48.174;11.756;2024-01-10T07:02:50;-2.00;58.60
10233;DHT22;5161;48.174;11.756;2024-01-10T07:05:15;-2.00;58.60
10233;DHT22;5161;48.174;11.756;2024-01-10T07:07:41;-2.00;58.50
10233;DHT22;5161;48.174;11.756;2024-01-10T07:10:07;-2.10;58.50
10233;DHT22;5161;48.174;11.756;2024-01-10T07:12:33;-2.00;58.70
10233;DHT22;5161;48.174;11.756;2024-01-10T07:15:00;-2.00;58.70
10233;DHT22;5161;48.174;11.756;2024-01-10T07:17:25;-2.10;58.50
10233;DHT22;5161;48.174;11.756;2024-01-10T07:19:51;-2.10;58.60
10233;DHT22;5161;48.174;11.756;2024-01-10T07:22:16;-2.10;58.70
10233;DHT22;5161;48.174;11.756;2024-01-10T07:24:43;-2.10;58.60
10233;DHT22;5161;48.174;11.756;2024-01-10T07:27:09;-2.10;58.60
10233;DHT22;5161;48.174;11.756;2024-01-10T07:29:35;-2.10;58.70
10233;DHT22;5161;48.174;11.756;2024-01-10T07:32:01;-2.10;58.70
10233;DHT22;5161;48.174;11.756;2024-01-10T07:34:26;-2.10;58.70
10233;DHT22;5161;48.174;11.756;2024-01-10T07:36:52;-2.10;58.60
10233;DHT22;5161;48.174;11.756;2024-01-10T07:39:19;-2.10;58.60
10233;DHT22;5161;48.174;11.756;2024-01-10T07:41:45;-2.10;58.60
10233;DHT22;5161;48.174;11.756;2024-01-10T07:44:11;-2.00;58.70
10233;DHT22;5161;48.174;11.756;2024-01-10T07:46:38;-2.10;58.60
10233;DHT22;5161;48.174;11.756;2024-01-10T07:49:04;-2.00;58.60
10233;DHT22;5161;48.174;11.756;2024-01-10T07:51:30;-2.00;58.50
10233;DHT22;5161;48.174;11.756;2024-01-10T07:53:59;-2.10;58.50
10233;DHT22;5161;48.174;11.756;2024-01-10T07:56:25;-2.10;59.00
10233;DHT22;5161;48.174;11.756;2024-01-10T07:58:50;-2.00;58.60
10233;DHT22;5161;48.174;11.756;2024-01-10T08:01:17;-2.10;58.60
10233;DHT22;5161;48.174;11.756;2024-01-10T08:03:43;-2.10;58.70
10233;DHT22;5161;48.174;11.756;2024-01-10T08:06:08;-2.10;58.70
10233;DHT22;5161;48.174;11.756;2024-01-10T08:08:35;-2.10;58.90
10233;DHT22;5161;48.174;11.756;2024-01-10T08:11:02;-2.10;58.70
10233;DHT22;5161;48.174;11.756;2024-01-10T08:13:27;-2.00;58.80
10233;DHT22;5161;48.174;11.756;2024-01-10T08:15:53;-2.00;58.80
10233;DHT22;5161;48.174;11.756;2024-01-10T08:18:19;-2.00;58.80
10233;DHT22;5161;48.174;11.756;2024-01-10T08:20:45;-2.10;58.80
10233;DHT22;5161;48.174;11.756;2024-01-10T08:23:11;-2.10;58.90
10233;DHT22;5161;48.174;11.756;2024-01-10T08:25:36;-2.10;59.00
10233;DHT22;5161;48.174;11.756;2024-01-10T08:28:03;-2.10;58.90
10233;DHT22;5161;48.174;11.756;2024-01-10T08:30:29;-2.00;59.10
10233;DHT22;5161;48.174;11.756;2024-01-10T08:32:54;-2.10;59.00
10233;DHT22;5161;48.174;11.756;2024-01-10T08:35:20;-2.10;59.00
10233;DHT22;5161;48.174;11.756;2024-01-10T08:37:45;-2.10;59.10
10233;DHT22;5161;48.174;11.756;2024-01-10T08:40:12;-2.00;59.30
10233;DHT22;5161;48.174;11.756;2024-01-10T08:42:40;-2.00;59.30
10233;DHT22;5161;48.174;11.756;2024-01-10T08:45:06;-2.00;59.30
10233;DHT22;5161;48.174;11.756;2024-01-10T08:47:35;-1.90;59.40
10233;DHT22;5161;48.174;11.756;2024-01-10T08:50:01;-1.90;59.40
10233;DHT22;5161;48.174;11.756;2024-01-10T08:52:27;-1.90;59.50
10233;DHT22;5161;48.174;11.756;2024-01-10T08:54:53;-1.80;59.50
10233;DHT22;5161;48.174;11.756;2024-01-10T08:57:18;-1.80;59.30
10233;DHT22;5161;48.174;11.756;2024-01-10T08:59:44;-1.80;59.50
10233;DHT22;5161;48.174;11.756;2024-01-10T09:02:09;-1.80;59.80
10233;DHT22;5161;48.174;11.756;2024-01-10T09:04:35;-1.80;59.40
10233;DHT22;5161;48.174;11.756;2024-01-10T09:07:01;-1.80;59.60
10233;DHT22;5161;48.174;11.756;2024-01-10T09:09:27;-1.70;59.70
10233;DHT22;5161;48.174;11.756;2024-01-10T09:11:53;-1.70;59.60
10233;DHT22;5161;48.174;11.756;2024-01-10T09:14:18;-1.70;59.50
10233;DHT22;5161;48.174;11.756;2024-01-10T09:16:45;-1.70;59.30
10233;DHT22;5161;48.174;11.756;2024-01-10T09:19:10;-1.70;59.20
10233;DHT22;5161;48.174;11.756;2024-01-10T09:21:36;-1.80;59.40
10233;DHT22;5161;48.174;11.756;2024-01-10T09:24:02;-1.80;59.60
10233;DHT22;5161;48.174;11.756;2024-01-10T09:26:30;-1.80;59.70
10233;DHT22;5161;48.174;11.756;2024-01-10T09:28:56;-1.70;59.70
10233;DHT22;5161;48.174;11.756;2024-01-10T09:31:22;-1.70;59.50
10233;DHT22;5161;48.174;11.756;2024-01-10T09:33:47;-1.70;59.40
10233;DHT22;5161;48.174;11.756;2024-01-10T09:36:13;-1.70;59.40
10233;DHT22;5161;48.174;11.756;2024-01-10T09:38:40;-1.70;59.50
10233;DHT22;5161;48.174;11.756;2024-01-10T09:41:05;-1.70;59.70
10233;DHT22;5161;48.174;11.756;2024-01-10T09:43:31;-1.70;59.50
10233;DHT22;5161;48.174;11.756;2024-01-10T09:46:00;-1.70;59.90
10233;DHT22;5161;48.174;11.756;2024-01-10T09:48:26;-1.70;59.80
10233;DHT22;5161;48.174;11.756;2024-01-10T09:50:52;-1.60;59.80
10233;DHT22;5161;48.174;11.756;2024-01-10T09:53:25;-1.60;59.70
10233;DHT22;5161;48.174;11.756;2024-01-10T09:55:56;-1.70;60.00
10233;DHT22;5161;48.174;11.756;2024-01-10T09:58:25;-1.70;59.60
10233;DHT22;5161;48.174;11.756;2024-01-10T10:00:52;-1.70;60.00
10233;DHT22;5161;48.174;11.756;2024-01-10T10:03:18;-1.70;60.00
10233;DHT22;5161;48.174;11.756;2024-01-10T10:05:44;-1.70;59.80
10233;DHT22;5161;48.174;11.756;2024-01-10T10:08:14;-1.80;60.10
10233;DHT22;5161;48.174;11.756;2024-01-10T10:10:41;-1.70;60.50
10233;DHT22;5161;48.174;11.756;2024-01-10T10:13:10;-1.60;60.30
10233;DHT22;5161;48.174;11.756;2024-01-10T10:16:00;-1.60;60.20
10233;DHT22;5161;48.174;11.756;2024-01-10T10:18:27;-1.70;60.60
10233;DHT22;5161;48.174;11.756;2024-01-10T10:21:12;-1.60;60.60
10233;DHT22;5161;48.174;11.756;2024-01-10T10:23:42;-1.50;60.90
10233;DHT22;5161;48.174;11.756;2024-01-10T10:26:16;-1.50;60.60
10233;DHT22;5161;48.174;11.756;2024-01-10T10:28:46;-1.40;61.00
10233;DHT22;5161;48.174;11.756;2024-01-10T10:31:13;-1.40;60.70
10233;DHT22;5161;48.174;11.756;2024-01-10T10:33:39;-1.40;60.60
10233;DHT22;5161;48.174;11.756;2024-01-10T10:36:06;-1.40;60.60
10233;DHT22;5161;48.174;11.756;2024-01-10T10:38:31;-1.40;61.00
10233;DHT22;5161;48.174;11.756;2024-01-10T10:40:58;-1.30;61.00
10233;DHT22;5161;48.174;11.756;2024-01-10T10:43:25;-1.40;60.90
10233;DHT22;5161;48.174;11.756;2024-01-10T10:45:51;-1.40;60.90
10233;DHT22;5161;48.174;11.756;2024-01-10T10:48:19;-1.30;61.00
10233;DHT22;5161;48.174;11.756;2024-01-10T10:50:58;-1.40;61.10
10233;DHT22;5161;48.174;11.756;2024-01-10T10:53:25;-1.30;61.30
10233;DHT22;5161;48.174;11.756;2024-01-10T10:55:53;-1.30;61.40
10233;DHT22;5161;48.174;11.756;2024-01-10T10:58:21;-1.20;61.50
10233;DHT22;5161;48.174;11.756;2024-01-10T11:00:47;-1.20;61.40
10233;DHT22;5161;48.174;11.756;2024-01-10T11:03:13;-1.20;61.80
10233;DHT22;5161;48.174;11.756;2024-01-10T11:05:40;-1.20;61.20
10233;DHT22;5161;48.174;11.756;2024-01-10T11:08:11;-1.10;61.40
10233;DHT22;5161;48.174;11.756;2024-01-10T11:10:39;-1.10;61.70
10233;DHT22;5161;48.174;11.756;2024-01-10T11:15:59;-1.10;61.70
10233;DHT22;5161;48.174;11.756;2024-01-10T11:18:35;-1.10;61.20
10233;DHT22;5161;48.174;11.756;2024-01-10T11:21:22;-1.10;61.20
10233;DHT22;5161;48.174;11.756;2024-01-10T11:23:54;-1.20;61.70
10233;DHT22;5161;48.174;11.756;2024-01-10T11:26:20;-1.20;61.90
10233;DHT22;5161;48.174;11.756;2024-01-10T11:28:46;-1.10;62.00
10233;DHT22;5161;48.174;11.756;2024-01-10T11:31:13;-1.10;61.90
10233;DHT22;5161;48.174;11.756;2024-01-10T11:33:42;-1.10;62.10
10233;DHT22;5161;48.174;11.756;2024-01-10T11:41:37;-1.00;62.40
10233;DHT22;5161;48.174;11.756;2024-01-10T11:46:37;-1.00;62.30
10233;DHT22;5161;48.174;11.756;2024-01-10T11:49:03;-0.90;62.20
10233;DHT22;5161;48.174;11.756;2024-01-10T11:51:32;-1.00;62.20
10233;DHT22;5161;48.174;11.756;2024-01-10T11:53:58;-0.90;62.40
10233;DHT22;5161;48.174;11.756;2024-01-10T11:56:38;-0.90;62.30
10233;DHT22;5161;48.174;11.756;2024-01-10T11:59:06;-0.90;62.60
10233;DHT22;5161;48.174;11.756;2024-01-10T12:01:37;-0.90;62.50
10233;DHT22;5161;48.174;11.756;2024-01-10T12:04:03;-0.90;62.40
10233;DHT22;5161;48.174;11.756;2024-01-10T12:06:38;-0.90;62.40
10233;DHT22;5161;48.174;11.756;2024-01-10T12:09:04;-0.90;62.50
10233;DHT22;5161;48.174;11.756;2024-01-10T12:11:38;-0.90;62.60
10233;DHT22;5161;48.174;11.756;2024-01-10T12:14:05;-0.90;62.40
10233;DHT22;5161;48.174;11.756;2024-01-10T12:16:32;-0.90;62.30
10233;DHT22;5161;48.174;11.756;2024-01-10T12:18:58;-0.90;62.50
10233;DHT22;5161;48.174;11.756;2024-01-10T12:21:23;-0.90;62.50
10233;DHT22;5161;48.174;11.756;2024-01-10T12:23:49;-1.00;62.30
10233;DHT22;5161;48.174;11.756;2024-01-10T12:26:16;-0.90;62.60
10233;DHT22;5161;48.174;11.756;2024-01-10T12:28:54;-0.90;62.40
10233;DHT22;5161;48.174;11.756;2024-01-10T12:31:20;-1.00;62.60
10233;DHT22;5161;48.174;11.756;2024-01-10T12:33:48;-1.00;62.40
10233;DHT22;5161;48.174;11.756;2024-01-10T12:36:14;-0.90;62.30
10233;DHT22;5161;48.174;11.756;2024-01-10T12:38:41;-0.90;62.50
10233;DHT22;5161;48.174;11.756;2024-01-10T12:41:07;-0.90;62.60
10233;DHT22;5161;48.174;11.756;2024-01-10T12:43:35;-0.90;62.50
10233;DHT22;5161;48.174;11.756;2024-01-10T12:46:07;-1.10;62.70
10233;DHT22;5161;48.174;11.756;2024-01-10T12:48:36;-1.10;63.10
10233;DHT22;5161;48.174;11.756;2024-01-10T12:51:10;-1.00;63.20
10233;DHT22;5161;48.174;11.756;2024-01-10T12:53:43;-1.00;63.40
10233;DHT22;5161;48.174;11.756;2024-01-10T12:56:10;-1.20;63.00
10233;DHT22;5161;48.174;11.756;2024-01-10T12:58:40;-1.10;63.30
10233;DHT22;5161;48.174;11.756;2024-01-10T13:01:08;-1.00;63.40
10233;DHT22;5161;48.174;11.756;2024-01-10T13:03:34;-1.00;63.20
10233;DHT22;5161;48.174;11.756;2024-01-10T13:06:00;-0.90;63.00
10233;DHT22;5161;48.174;11.756;2024-01-10T13:08:25;-0.90;63.10
10233;DHT22;5161;48.174;11.756;2024-01-10T13:10:51;-0.90;63.30
10233;DHT22;5161;48.174;11.756;2024-01-10T13:13:18;-0.90;63.20
10233;DHT22;5161;48.174;11.756;2024-01-10T13:15:44;-0.90;63.20
10233;DHT22;5161;48.174;11.756;2024-01-10T13:18:13;-0.90;63.40
10233;DHT22;5161;48.174;11.756;2024-01-10T13:20:39;-0.90;63.20
10233;DHT22;5161;48.174;11.756;2024-01-10T13:23:05;-0.90;63.10
10233;DHT22;5161;48.174;11.756;2024-01-10T13:25:31;-0.90;63.30
10233;DHT22;5161;48.174;11.756;2024-01-10T13:27:57;-0.90;63.30
10233;DHT22;5161;48.174;11.756;2024-01-10T13:30:26;-0.80;63.50
10233;DHT22;5161;48.174;11.756;2024-01-10T13:32:52;-0.90;63.40
10233;DHT22;5161;48.174;11.756;2024-01-10T13:35:18;-0.90;63.60
10233;DHT22;5161;48.174;11.756;2024-01-10T13:37:44;-0.90;63.60
10233;DHT22;5161;48.174;11.756;2024-01-10T13:40:10;-0.80;63.80
10233;DHT22;5161;48.174;11.756;2024-01-10T13:42:38;-0.90;63.60
10233;DHT22;5161;48.174;11.756;2024-01-10T13:45:05;-0.80;63.70
10233;DHT22;5161;48.174;11.756;2024-01-10T13:47:31;-0.90;63.40
10233;DHT22;5161;48.174;11.756;2024-01-10T13:49:59;-1.00;63.90
10233;DHT22;5161;48.174;11.756;2024-01-10T13:52:25;-1.20;64.00
10233;DHT22;5161;48.174;11.756;2024-01-10T13:54:50;-1.20;64.70
10233;DHT22;5161;48.174;11.756;2024-01-10T13:57:17;-1.20;64.80
10233;DHT22;5161;48.174;11.756;2024-01-10T13:59:43;-1.10;64.70
10233;DHT22;5161;48.174;11.756;2024-01-10T14:02:09;-1.00;64.60
10233;DHT22;5161;48.174;11.756;2024-01-10T14:04:35;-0.90;64.60
10233;DHT22;5161;48.174;11.756;2024-01-10T14:07:01;-0.90;64.60
10233;DHT22;5161;48.174;11.756;2024-01-10T14:09:29;-0.90;64.60
10233;DHT22;5161;48.174;11.756;2024-01-10T14:11:55;-0.90;64.60
10233;DHT22;5161;48.174;11.756;2024-01-10T14:14:21;-0.80;64.60
10233;DHT22;5161;48.174;11.756;2024-01-10T14:16:46;-0.80;64.70
10233;DHT22;5161;48.174;11.756;2024-01-10T14:19:12;-0.80;64.60
10233;DHT22;5161;48.174;11.756;2024-01-10T14:21:37;-0.80;64.40
10233;DHT22;5161;48.174;11.756;2024-01-10T14:24:04;-0.80;64.50
10233;DHT22;5161;48.174;11.756;2024-01-10T14:26:29;-0.80;64.50
10233;DHT22;5161;48.174;11.756;2024-01-10T14:28:55;-0.80;64.60
10233;DHT22;5161;48.174;11.756;2024-01-10T14:31:22;-0.80;64.70
10233;DHT22;5161;48.174;11.756;2024-01-10T14:33:48;-0.80;64.80
10233;DHT22;5161;48.174;11.756;2024-01-10T14:36:14;-0.80;64.80
10233;DHT22;5161;48.174;11.756;2024-01-10T14:38:40;-0.80;64.80
10233;DHT22;5161;48.174;11.756;2024-01-10T14:41:07;-0.80;64.80
10233;DHT22;5161;48.174;11.756;2024-01-10T14:43:33;-0.80;64.80
10233;DHT22;5161;48.174;11.756;2024-01-10T14:45:58;-0.80;64.80
10233;DHT22;5161;48.174;11.756;2024-01-10T14:48:24;-0.80;65.00
10233;DHT22;5161;48.174;11.756;2024-01-10T14:50:50;-0.80;64.90
10233;DHT22;5161;48.174;11.756;2024-01-10T14:53:16;-0.80;64.90
10233;DHT22;5161;48.174;11.756;2024-01-10T14:55:42;-0.80;64.90
10233;DHT22;5161;48.174;11.756;2024-01-10T14:58:07;-0.80;64.90
10233;DHT22;5161;48.174;11.756;2024-01-10T15:00:33;-0.80;65.00
10233;DHT22;5161;48.174;11.756;2024-01-10T15:02:58;-0.80;65.10
10233;DHT22;5161;48.174;11.756;2024-01-10T15:05:24;-0.80;65.00
10233;DHT22;5161;48.174;11.756;2024-01-10T15:07:51;-0.80;65.10
10233;DHT22;5161;48.174;11.756;2024-01-10T15:10:16;-0.70;65.20
10233;DHT22;5161;48.174;11.756;2024-01-10T15:12:42;-0.70;65.20
10233;DHT22;5161;48.174;11.756;2024-01-10T15:15:09;-0.80;65.20
10233;DHT22;5161;48.174;11.756;2024-01-10T15:17:36;-0.80;65.00
10233;DHT22;5161;48.174;11.756;2024-01-10T15:20:02;-0.80;65.10
10233;DHT22;5161;48.174;11.756;2024-01-10T15:22:28;-0.80;65.10
10233;DHT22;5161;48.174;11.756;2024-01-10T15:24:53;-0.90;65.10
10233;DHT22;5161;48.174;11.756;2024-01-10T15:27:19;-0.90;65.30
10233;DHT22;5161;48.174;11.756;2024-01-10T15:29:44;-0.80;65.40
10233;DHT22;5161;48.174;11.756;2024-01-10T15:32:10;-0.80;65.20
10233;DHT22;5161;48.174;11.756;2024-01-10T15:34:35;-0.80;65.20
10233;DHT22;5161;48.174;11.756;2024-01-10T15:37:01;-0.80;65.20